Portada
METAR-TAF:

METAR-TAF

Aeroports :

Sukhothai, Tailàndia

latitud: 17-14-16N, longitud: 099-49-05E, altitud: 55 m

Observació

L'informe es va fer fa 2 hores i 14 minuts, a les 10:00 UTC
Vent 3 kt del Nord-Oest
Temperatura 34°C
Humitat 60%
Pressió 1005 hPa
Visibilitat 10 km o més
Escasses núvols a una alçada de 2500 ft

METAR: VTPO 181000Z 32003KT 9999 FEW025 34/25 Q1005 TEMPO FM1100 5000 TSRA

Hora: 19:14 (12:14 UTC)

Pronòstic

L'informe es va fer fa 1 hora i 14 minuts, a les 11:00 UTC
Pronòstic vàlid del 18 a les 12 UTC al 19 a les 12 UTC
Vent 5 kt del Oest/Nord-Oest
Visibilitat 10 km o més
Escasses núvols a una alçada de 3500 ft
Temporalment
l' 18 a les 14 UTC al 18 a les 20 UTC
Vent 15 kt amb direcció variable amb ràfegues de 30 kt
Visibilitat: 4000 m
Escasses núvols a una alçada de 1800 ft, Cumulonimbus.
Cel ennuvolat a una alçada de 3500 ft
tempesta, pluja

TAF: VTPO 181100Z 1812/1912 30005KT 9999 FEW035 TEMPO 1814/1820 VRB15G30KT 4000 TSRA FEW018CB BKN035

Observacions i pronòstics meteorològics de més de 4000 aeroports (METAR i TAF).

Les estacions disponibles són els punts grocs i vermells al mapa.

Posi el ratolí al punt desitjat per veure el nom de l'estació.

Feu clic per veure les observacions i els pronòstics meteorològics.

Per canviar el mapa: feu clic els botons verds amb una creu de color negre per apropar; al botó verd amb un guió per allunyar la imatge; o en les fletxes verdes per a mapes adjacents.


METAR-TAF: